Shandaken, NY (12480)

5:31 AM EDT on August 30, 2015 (GMT -0400)
Downtown Pine Hill | | Change Station
CLOSE
Current Station
Personal Weather Station
Location: Pine Hill, NY
Elevation: 1680 ft
Nearby Weather Stations

Elev 1680 ft 42.13 °N, 74.48 °W | Updated 6 minutes ago

Overcast
Overcast
55.9 °F
Feels Like 55.9 °F
N
0.0
Wind Variable Wind from North
Gusts 0.0 mph

Today
High -- | Low -- °F
--% Chance of Precip.
Yesterday
High -- | Low -- °F
Precip. -- in
6:20 AM 7:35 PM
Waxing Gibbous, 99% visible
Pressure 30.13 in
Visibility 0.2 miles
Clouds Overcast 100 ft
Dew Point 55 °F
Humidity 96%
Rainfall Not available.
Snow Depth Not available.
UV 0 out of 12
Pollen 9.10 out of 12
Air Quality Not available.
Flu Activity Not available.
METAR KMSV 300915Z AUTO 00000KT 1/4SM OVC001 14/14 A3013 RMK AO1
Pressure 30.13 in
Visibility 0.2 miles
Clouds Overcast 100 ft
Dew Point 55 °F
Humidity 96%
Rainfall Not available.
Snow Depth Not available.
UV 0 out of 12
Pollen 9.10 out of 12
Air Quality Not available.
Flu Activity Not available.
METAR KMSV 300915Z AUTO 00000KT 1/4SM OVC001 14/14 A3013 RMK AO1

10-Day Weather Forecast

×

Almanac

Astronomy

Aug. 30, 2015 Rise Set
Actual Time
Civil Twilight
Nautical Twilight
Astronomical Twilight
Moon
Length of Visible Light
Length of Day
Tomorrow will be .
, % of the Moon is Illuminated

Today's Extremes

State Highs State Lows

Community

WunderPhotos

Upload Photos

1,850,919 photos uploaded!

WunderBlogs® & News

Nearby

Air Quality

  Air Quality AQ Index Pollutant
Not available.

Snow Depth

Station Depth Elevation

Earthquake Activity

City Distance Mag. Time & Date
Minimum magnitude displayed is 2.5.

Coastal Water Temperatures

Place Temperature

Stations

Nearby Weather Stations

Station Location Temp. Windchill Dew Point Humidity Wind Precip. Elev Updated Type